createdAt,value
2017-01-06T00:00:13.032Z,55.72
2017-01-06T00:01:12.209Z,55.74
2017-01-06T00:02:13.547Z,55.74
2017-01-06T00:03:13.273Z,55.74
2017-01-06T00:04:13.816Z,55.73
2017-01-06T00:05:13.928Z,55.72
2017-01-06T00:06:13.674Z,55.72
2017-01-06T00:07:12.326Z,55.71
2017-01-06T00:08:12.538Z,55.72
2017-01-06T00:09:13.320Z,55.72
2017-01-06T00:10:12.486Z,55.71
2017-01-06T00:11:12.689Z,55.72
2017-01-06T00:12:12.707Z,55.72
2017-01-06T00:13:12.808Z,55.71
2017-01-06T00:14:13.725Z,55.71
2017-01-06T00:15:12.815Z,55.71
2017-01-06T00:16:14.120Z,55.69
2017-01-06T00:17:11.074Z,55.69
2017-01-06T00:18:10.321Z,55.71
2017-01-06T00:19:12.710Z,54.80
2017-01-06T00:20:11.089Z,54.62
2017-01-06T00:21:13.170Z,54.40
2017-01-06T00:22:13.265Z,54.58
2017-01-06T00:23:13.102Z,54.42
2017-01-06T00:24:13.269Z,54.40
2017-01-06T00:25:12.304Z,54.36
2017-01-06T00:26:13.374Z,54.36
2017-01-06T00:27:13.580Z,54.62
2017-01-06T00:28:13.222Z,55.25
2017-01-06T00:29:13.044Z,55.44
2017-01-06T00:30:10.921Z,55.53
2017-01-06T00:31:13.369Z,54.70
2017-01-06T00:32:10.747Z,54.55
2017-01-06T00:33:13.243Z,55.35
2017-01-06T00:34:13.037Z,55.40
2017-01-06T00:35:13.381Z,54.68
2017-01-06T00:36:12.940Z,54.55
2017-01-06T00:37:12.889Z,54.48
2017-01-06T00:38:13.051Z,54.42
2017-01-06T00:39:12.749Z,55.28
2017-01-06T00:40:12.612Z,55.48
2017-01-06T00:41:13.812Z,55.56
2017-01-06T00:42:11.050Z,55.63
2017-01-06T00:43:12.829Z,54.76
2017-01-06T00:44:12.966Z,54.57
2017-01-06T00:45:13.502Z,54.49
2017-01-06T00:46:15.384Z,55.33
2017-01-06T00:47:12.413Z,55.49
2017-01-06T00:48:13.377Z,55.56
2017-01-06T00:49:12.908Z,55.64
2017-01-06T00:50:11.856Z,55.69
2017-01-06T00:51:12.583Z,54.81
2017-01-06T00:52:14.147Z,54.64
2017-01-06T00:53:12.908Z,54.55
2017-01-06T00:54:13.061Z,54.49
2017-01-06T00:55:10.385Z,54.52
2017-01-06T00:56:14.338Z,55.37
2017-01-06T00:57:14.539Z,55.53
2017-01-06T00:58:14.367Z,55.62
2017-01-06T00:59:14.023Z,55.69
2017-01-06T01:00:13.130Z,55.70
2017-01-06T01:01:11.222Z,55.73
2017-01-06T01:02:10.494Z,55.75
2017-01-06T01:03:11.514Z,54.96
2017-01-06T01:04:13.385Z,54.72
2017-01-06T01:05:13.049Z,54.65
2017-01-06T01:06:12.140Z,54.60
2017-01-06T01:07:12.251Z,54.55
2017-01-06T01:08:12.831Z,54.56
2017-01-06T01:09:16.138Z,55.41
2017-01-06T01:10:12.335Z,55.56
2017-01-06T01:11:15.335Z,55.70
2017-01-06T01:12:16.141Z,55.62
2017-01-06T01:13:13.429Z,54.90
2017-01-06T01:14:12.472Z,54.69
2017-01-06T01:15:11.584Z,54.60
2017-01-06T01:16:13.627Z,54.46
2017-01-06T01:17:14.125Z,54.51
2017-01-06T01:18:12.341Z,54.50
2017-01-06T01:19:15.214Z,54.48
2017-01-06T01:20:14.778Z,54.44
2017-01-06T01:21:14.284Z,54.47
2017-01-06T01:22:14.444Z,55.36
2017-01-06T01:23:17.300Z,55.54
2017-01-06T01:24:11.068Z,55.64
2017-01-06T01:25:10.347Z,55.72
2017-01-06T01:26:13.622Z,55.75
2017-01-06T01:27:12.801Z,55.78
2017-01-06T01:28:13.635Z,55.82
2017-01-06T01:29:14.498Z,55.83
2017-01-06T01:30:14.854Z,55.83
2017-01-06T01:31:13.356Z,55.85
2017-01-06T01:32:13.132Z,55.88
2017-01-06T01:33:17.095Z,55.88
2017-01-06T01:34:14.027Z,55.89
2017-01-06T01:35:14.755Z,55.87
2017-01-06T01:36:13.859Z,55.87
2017-01-06T01:37:14.800Z,55.87
2017-01-06T01:38:14.574Z,55.87
2017-01-06T01:39:14.444Z,55.88
2017-01-06T01:40:14.493Z,55.88
2017-01-06T01:41:16.014Z,55.83
2017-01-06T01:42:14.464Z,54.98
2017-01-06T01:43:13.889Z,55.68
2017-01-06T01:44:14.673Z,55.79
2017-01-06T01:45:14.229Z,55.84
2017-01-06T01:46:13.312Z,55.84
2017-01-06T01:47:14.936Z,55.86
2017-01-06T01:48:12.990Z,55.87
2017-01-06T01:49:14.034Z,55.88
2017-01-06T01:50:12.178Z,55.89
2017-01-06T01:51:13.558Z,55.88
2017-01-06T01:52:13.718Z,55.88
2017-01-06T01:53:16.293Z,55.88
2017-01-06T01:54:13.993Z,55.87
2017-01-06T01:55:13.383Z,55.87
2017-01-06T01:56:14.945Z,55.87
2017-01-06T01:57:12.692Z,55.86
2017-01-06T01:58:13.285Z,55.87
2017-01-06T01:59:11.595Z,55.89
2017-01-06T02:00:13.552Z,55.87
2017-01-06T02:03:16.566Z,55.89
2017-01-06T02:04:44.746Z,55.91
2017-01-06T02:05:13.217Z,55.91
2017-01-06T02:06:12.326Z,55.89
2017-01-06T02:07:12.461Z,55.88
2017-01-06T02:08:14.751Z,55.87
2017-01-06T02:09:13.018Z,55.14
2017-01-06T02:10:14.609Z,55.58
2017-01-06T02:11:12.149Z,54.91
2017-01-06T02:12:13.573Z,55.64
2017-01-06T02:13:13.512Z,55.76
2017-01-06T02:14:14.409Z,55.71
2017-01-06T02:15:13.930Z,54.95
2017-01-06T02:16:13.694Z,54.78
2017-01-06T02:17:12.839Z,54.69
2017-01-06T02:18:13.010Z,54.64
2017-01-06T02:19:15.668Z,54.59
2017-01-06T02:20:14.112Z,54.57
2017-01-06T02:21:12.844Z,54.88
2017-01-06T02:22:13.663Z,55.47
2017-01-06T02:23:13.741Z,55.67
2017-01-06T02:24:12.960Z,55.78
2017-01-06T02:25:13.249Z,55.82
2017-01-06T02:26:12.658Z,55.84
2017-01-06T02:27:14.041Z,55.85
2017-01-06T02:28:14.638Z,55.87
2017-01-06T02:29:13.923Z,55.87
2017-01-06T02:30:13.787Z,55.87
2017-01-06T02:31:12.909Z,55.88
2017-01-06T02:32:14.888Z,55.88
2017-01-06T02:33:13.770Z,55.89
2017-01-06T02:34:13.213Z,55.90
2017-01-06T02:35:16.070Z,55.92
2017-01-06T02:36:13.173Z,55.90
2017-01-06T02:37:12.216Z,55.90
2017-01-06T02:38:13.681Z,55.91
2017-01-06T02:39:13.800Z,55.92
2017-01-06T02:40:15.282Z,55.90
2017-01-06T02:41:14.939Z,55.92
2017-01-06T02:42:13.615Z,55.91
2017-01-06T02:43:13.153Z,55.91
2017-01-06T02:44:14.682Z,55.91
2017-01-06T02:45:13.438Z,55.92
2017-01-06T02:46:13.347Z,55.93
2017-01-06T02:47:13.024Z,55.97
2017-01-06T02:48:14.462Z,55.94
2017-01-06T02:49:12.633Z,55.93
2017-01-06T02:50:14.356Z,55.93
2017-01-06T02:51:13.242Z,55.91
2017-01-06T02:52:13.206Z,55.92
2017-01-06T02:53:13.561Z,55.93
2017-01-06T02:54:13.247Z,55.97
2017-01-06T02:55:12.927Z,55.98
2017-01-06T02:56:12.916Z,55.97
2017-01-06T02:57:13.453Z,55.98
2017-01-06T02:58:13.280Z,55.97
2017-01-06T02:59:12.368Z,55.95
2017-01-06T03:00:13.112Z,55.96
2017-01-06T03:01:13.266Z,55.97
2017-01-06T03:02:13.974Z,55.97
2017-01-06T03:03:12.679Z,55.96
2017-01-06T03:04:15.601Z,55.95
2017-01-06T03:05:14.057Z,55.94
2017-01-06T03:06:12.866Z,55.93
2017-01-06T03:07:12.921Z,55.94
2017-01-06T03:08:13.295Z,55.95
2017-01-06T03:09:10.623Z,55.96
2017-01-06T03:10:13.172Z,55.94
2017-01-06T03:11:12.759Z,55.94
2017-01-06T03:12:14.742Z,55.93
2017-01-06T03:13:13.328Z,55.95
2017-01-06T03:14:14.189Z,55.94
2017-01-06T03:15:12.332Z,55.94
2017-01-06T03:16:13.975Z,55.96
2017-01-06T03:17:12.543Z,55.98
2017-01-06T03:18:12.422Z,55.98
2017-01-06T03:19:10.074Z,55.98
2017-01-06T03:20:11.179Z,55.97
2017-01-06T03:21:15.182Z,55.05
2017-01-06T03:22:14.807Z,54.85
2017-01-06T03:23:12.814Z,54.76
2017-01-06T03:24:15.310Z,54.80
2017-01-06T03:25:12.330Z,55.53
2017-01-06T03:26:13.065Z,55.71
2017-01-06T03:27:12.857Z,55.80
2017-01-06T03:28:14.183Z,55.86
2017-01-06T03:29:09.780Z,55.91
2017-01-06T03:30:12.491Z,55.91
2017-01-06T03:31:10.392Z,55.94
2017-01-06T03:32:14.935Z,55.93
2017-01-06T03:33:13.092Z,55.93
2017-01-06T03:34:12.600Z,55.94
2017-01-06T03:35:14.628Z,55.94
2017-01-06T03:36:14.619Z,55.95
2017-01-06T03:37:14.872Z,55.95
2017-01-06T03:38:14.741Z,55.96
2017-01-06T03:39:16.832Z,55.96
2017-01-06T03:40:13.547Z,55.96
2017-01-06T03:41:11.325Z,56.00
2017-01-06T03:42:13.120Z,55.94
2017-01-06T03:43:15.237Z,55.96
2017-01-06T03:44:14.261Z,55.97
2017-01-06T03:45:12.423Z,55.97
2017-01-06T03:46:12.899Z,55.96
2017-01-06T03:47:13.801Z,55.97
2017-01-06T03:48:13.614Z,55.98
2017-01-06T03:49:13.288Z,55.96
2017-01-06T03:50:12.261Z,55.97
2017-01-06T03:51:10.411Z,55.96
2017-01-06T03:52:13.173Z,55.96
2017-01-06T03:53:12.920Z,55.98
2017-01-06T03:54:13.627Z,55.86
2017-01-06T03:55:13.402Z,55.11
2017-01-06T03:56:11.194Z,54.89
2017-01-06T03:57:13.008Z,54.79
2017-01-06T03:58:13.342Z,54.91
2017-01-06T03:59:13.002Z,55.56
2017-01-06T04:00:12.562Z,55.76
2017-01-06T04:01:14.154Z,55.83
2017-01-06T04:02:12.743Z,55.86
2017-01-06T04:03:14.440Z,55.91
2017-01-06T04:04:16.076Z,55.93
2017-01-06T04:05:09.470Z,55.92
2017-01-06T04:06:12.568Z,55.92
2017-01-06T04:07:13.404Z,55.93
2017-01-06T04:08:12.527Z,55.93
2017-01-06T04:09:13.441Z,55.93
2017-01-06T04:10:12.492Z,55.94
2017-01-06T04:11:15.080Z,55.95
2017-01-06T04:12:12.888Z,55.94
2017-01-06T04:13:13.741Z,55.95
2017-01-06T04:14:14.427Z,55.95
2017-01-06T04:15:10.329Z,55.95
2017-01-06T04:16:14.716Z,55.95
2017-01-06T04:17:13.392Z,55.94
2017-01-06T04:18:13.309Z,55.94
2017-01-06T04:19:12.989Z,55.96
2017-01-06T04:20:13.772Z,55.94
2017-01-06T04:21:13.921Z,55.94
2017-01-06T04:22:13.499Z,55.96
2017-01-06T04:23:11.253Z,55.96
2017-01-06T04:24:11.365Z,55.08
2017-01-06T04:25:12.484Z,54.87
2017-01-06T04:26:12.999Z,54.77
2017-01-06T04:27:13.161Z,54.69
2017-01-06T04:28:13.387Z,54.68
2017-01-06T04:29:13.034Z,54.98
2017-01-06T04:30:13.859Z,55.56
2017-01-06T04:31:14.855Z,55.74
2017-01-06T04:32:14.820Z,55.84
2017-01-06T04:33:13.241Z,55.87
2017-01-06T04:34:12.941Z,55.91
2017-01-06T04:35:12.108Z,55.93
2017-01-06T04:36:12.887Z,55.93
2017-01-06T04:37:12.905Z,55.93
2017-01-06T04:38:14.535Z,55.96
2017-01-06T04:39:15.165Z,55.99
2017-01-06T04:40:12.434Z,55.97
2017-01-06T04:41:13.652Z,55.96
2017-01-06T04:42:14.344Z,55.96
2017-01-06T04:43:13.039Z,55.95
2017-01-06T04:44:12.081Z,55.95
2017-01-06T04:45:12.723Z,55.95
2017-01-06T04:46:13.485Z,55.90
2017-01-06T04:47:11.368Z,55.94
2017-01-06T04:48:12.837Z,55.94
2017-01-06T04:49:16.402Z,55.95
2017-01-06T04:50:13.163Z,55.94
2017-01-06T04:51:12.940Z,55.94
2017-01-06T04:52:12.388Z,55.98
2017-01-06T04:53:12.503Z,55.96
2017-01-06T04:54:13.935Z,55.97
2017-01-06T04:55:10.283Z,55.97
2017-01-06T04:56:13.314Z,55.97
2017-01-06T04:57:14.938Z,55.95
2017-01-06T04:58:14.922Z,55.95
2017-01-06T04:59:14.440Z,55.97
2017-01-06T05:00:11.093Z,56.00
2017-01-06T05:01:11.414Z,55.97
2017-01-06T05:02:14.084Z,55.36
2017-01-06T05:03:14.025Z,55.78
2017-01-06T05:04:12.602Z,55.87
2017-01-06T05:05:11.531Z,55.92
2017-01-06T05:06:13.355Z,55.93
2017-01-06T05:07:12.997Z,55.92
2017-01-06T05:08:13.547Z,55.93
2017-01-06T05:09:12.575Z,55.94
2017-01-06T05:10:10.921Z,55.97
2017-01-06T05:11:14.017Z,55.94
2017-01-06T05:12:12.162Z,55.95
2017-01-06T05:13:12.295Z,55.94
2017-01-06T05:14:13.985Z,55.95
2017-01-06T05:15:11.992Z,55.97
2017-01-06T05:16:11.030Z,55.96
2017-01-06T05:17:10.505Z,55.09
2017-01-06T05:18:15.318Z,54.85
2017-01-06T05:19:13.045Z,55.64
2017-01-06T05:20:15.014Z,55.82
2017-01-06T05:21:12.239Z,55.87
2017-01-06T05:22:13.455Z,55.91
2017-01-06T05:23:14.053Z,55.94
2017-01-06T05:24:15.077Z,55.96
2017-01-06T05:25:17.694Z,55.78
2017-01-06T05:26:17.698Z,55.06
2017-01-06T05:27:14.427Z,54.86
2017-01-06T05:28:13.122Z,54.76
2017-01-06T05:29:12.090Z,54.71
2017-01-06T05:30:12.163Z,54.66
2017-01-06T05:31:12.812Z,54.64
2017-01-06T05:32:13.690Z,55.52
2017-01-06T05:33:13.763Z,55.71
2017-01-06T05:34:13.526Z,55.80
2017-01-06T05:35:11.507Z,55.85
2017-01-06T05:36:16.459Z,55.36
2017-01-06T05:37:12.523Z,55.72
2017-01-06T05:38:13.405Z,55.83
2017-01-06T05:39:13.256Z,55.87
2017-01-06T05:40:14.780Z,55.90
2017-01-06T05:41:14.804Z,55.92
2017-01-06T05:42:13.518Z,55.92
2017-01-06T05:43:15.028Z,55.95
2017-01-06T05:44:12.204Z,55.95
2017-01-06T05:45:14.060Z,55.94
2017-01-06T05:46:12.643Z,55.94
2017-01-06T05:47:15.855Z,55.96
2017-01-06T05:48:12.928Z,55.96
2017-01-06T05:49:12.609Z,55.96
2017-01-06T05:50:13.156Z,55.96
2017-01-06T05:51:13.818Z,55.97
2017-01-06T05:52:13.736Z,55.97
2017-01-06T05:53:13.498Z,55.98
2017-01-06T05:54:12.575Z,55.96
2017-01-06T05:55:13.803Z,55.99
2017-01-06T05:56:15.527Z,55.99
2017-01-06T05:57:13.125Z,55.98
2017-01-06T05:58:13.525Z,56.00
2017-01-06T05:59:12.695Z,55.99
2017-01-06T06:00:12.876Z,55.98
2017-01-06T06:01:12.507Z,56.00
2017-01-06T06:02:14.308Z,56.00
2017-01-06T06:03:13.216Z,56.00
2017-01-06T06:04:12.874Z,56.00
2017-01-06T06:05:13.420Z,55.99
2017-01-06T06:06:13.275Z,55.99
2017-01-06T06:07:12.225Z,55.99
2017-01-06T06:08:12.294Z,55.99
2017-01-06T06:09:14.776Z,55.98
2017-01-06T06:10:10.216Z,56.00
2017-01-06T06:11:12.447Z,55.99
2017-01-06T06:12:10.829Z,56.02
2017-01-06T06:13:14.266Z,55.08
2017-01-06T06:14:13.475Z,55.75
2017-01-06T06:15:12.623Z,55.86
2017-01-06T06:16:12.694Z,55.92
2017-01-06T06:17:14.084Z,55.94
2017-01-06T06:18:12.703Z,55.97
2017-01-06T06:19:12.660Z,55.97
2017-01-06T06:20:13.428Z,55.97
2017-01-06T06:21:13.193Z,55.99
2017-01-06T06:22:10.994Z,56.01
2017-01-06T06:23:13.134Z,56.00
2017-01-06T06:24:12.707Z,56.00
2017-01-06T06:25:13.701Z,55.98
2017-01-06T06:26:12.759Z,55.99
2017-01-06T06:27:13.544Z,56.00
2017-01-06T06:28:14.382Z,55.99
2017-01-06T06:29:14.071Z,56.00
2017-01-06T06:30:09.496Z,56.02
2017-01-06T06:31:13.132Z,56.02
2017-01-06T06:32:11.179Z,55.77
2017-01-06T06:33:10.460Z,55.11
2017-01-06T06:34:13.677Z,55.80
2017-01-06T06:35:13.438Z,55.91
2017-01-06T06:36:13.056Z,55.96
2017-01-06T06:37:12.770Z,55.98
2017-01-06T06:38:13.446Z,55.98
2017-01-06T06:39:13.121Z,55.99
2017-01-06T06:40:13.127Z,55.98
2017-01-06T06:41:11.896Z,55.99
2017-01-06T06:42:13.725Z,55.97
2017-01-06T06:43:12.888Z,56.00
2017-01-06T06:44:14.594Z,55.99
2017-01-06T06:45:13.098Z,56.00
2017-01-06T06:46:12.362Z,56.00
2017-01-06T06:47:13.089Z,56.01
2017-01-06T06:48:09.781Z,56.03
2017-01-06T06:49:15.136Z,56.03
2017-01-06T06:50:12.142Z,56.03
2017-01-06T06:51:12.779Z,56.05
2017-01-06T06:52:12.769Z,56.00
2017-01-06T06:53:12.966Z,56.00
2017-01-06T06:54:12.840Z,55.99
2017-01-06T06:55:14.734Z,56.01
2017-01-06T06:56:12.712Z,56.01
2017-01-06T06:57:13.888Z,56.02
2017-01-06T06:58:12.971Z,56.02
2017-01-06T06:59:13.421Z,56.02
2017-01-06T07:00:13.117Z,56.00
2017-01-06T07:01:12.089Z,56.00
2017-01-06T07:02:13.774Z,56.01
2017-01-06T07:03:13.213Z,55.90
2017-01-06T07:04:12.894Z,55.07
2017-01-06T07:05:13.091Z,54.91
2017-01-06T07:06:18.078Z,54.83
2017-01-06T07:07:12.370Z,54.76
2017-01-06T07:08:12.462Z,54.94
2017-01-06T07:09:14.162Z,55.59
2017-01-06T07:10:14.151Z,55.77
2017-01-06T07:11:12.671Z,55.76
2017-01-06T07:12:12.667Z,55.02
2017-01-06T07:13:14.130Z,54.88
2017-01-06T07:14:12.926Z,54.75
2017-01-06T07:15:13.559Z,54.80
2017-01-06T07:16:13.463Z,55.55
2017-01-06T07:17:15.507Z,55.75
2017-01-06T07:18:12.594Z,55.83
2017-01-06T07:19:14.210Z,55.89
2017-01-06T07:20:15.699Z,55.91
2017-01-06T07:21:13.695Z,55.94
2017-01-06T07:22:12.682Z,55.97
2017-01-06T07:23:15.192Z,55.97
2017-01-06T07:24:13.178Z,56.00
2017-01-06T07:25:10.623Z,56.02
2017-01-06T07:26:11.638Z,55.91
2017-01-06T07:27:12.686Z,55.10
2017-01-06T07:28:14.271Z,55.25
2017-01-06T07:29:16.268Z,55.75
2017-01-06T07:30:13.811Z,55.88
2017-01-06T07:31:13.429Z,55.92
2017-01-06T07:32:13.181Z,55.96
2017-01-06T07:33:12.705Z,55.98
2017-01-06T07:34:11.482Z,56.00
2017-01-06T07:35:13.312Z,56.00
2017-01-06T07:36:12.517Z,55.99
2017-01-06T07:37:13.815Z,55.99
2017-01-06T07:38:10.595Z,56.01
2017-01-06T07:39:12.600Z,56.01
2017-01-06T07:40:14.328Z,56.01
2017-01-06T07:41:12.900Z,56.01
2017-01-06T07:42:13.038Z,56.01
2017-01-06T07:43:12.580Z,56.00
2017-01-06T07:44:14.218Z,56.03
2017-01-06T07:45:12.871Z,56.02
2017-01-06T07:46:10.418Z,56.03
2017-01-06T07:47:12.968Z,55.99
2017-01-06T07:48:12.008Z,55.99
2017-01-06T07:49:10.592Z,56.01
2017-01-06T07:50:12.980Z,56.00
2017-01-06T07:51:13.003Z,56.02
2017-01-06T07:52:12.696Z,56.04
2017-01-06T07:53:13.581Z,56.05
2017-01-06T07:54:12.481Z,56.05
2017-01-06T07:55:11.289Z,56.21
2017-01-06T07:56:12.379Z,56.01
2017-01-06T07:57:15.078Z,56.00
2017-01-06T07:58:12.144Z,56.00
2017-01-06T07:59:12.808Z,56.00
2017-01-06T08:00:12.798Z,55.99
2017-01-06T08:01:13.365Z,56.00
2017-01-06T08:02:13.535Z,56.00
2017-01-06T08:03:12.603Z,55.98
2017-01-06T08:04:13.020Z,55.99
2017-01-06T08:05:12.924Z,55.99
2017-01-06T08:06:11.879Z,55.99
2017-01-06T08:07:13.652Z,56.00
2017-01-06T08:08:14.081Z,55.98
2017-01-06T08:09:12.916Z,55.98
2017-01-06T08:10:13.090Z,56.00
2017-01-06T08:11:09.967Z,56.01
2017-01-06T08:12:12.912Z,55.98
2017-01-06T08:13:13.960Z,55.98
2017-01-06T08:14:13.615Z,55.96
2017-01-06T08:15:11.107Z,55.97
2017-01-06T08:16:12.107Z,55.95
2017-01-06T08:17:12.232Z,55.95
2017-01-06T08:18:12.251Z,55.95
2017-01-06T08:19:12.960Z,55.96
2017-01-06T08:20:12.003Z,55.96
2017-01-06T08:21:12.610Z,55.97
2017-01-06T08:22:13.165Z,55.99
2017-01-06T08:23:12.291Z,56.00
2017-01-06T08:24:12.825Z,55.99
2017-01-06T08:25:11.650Z,56.00
2017-01-06T08:26:10.912Z,56.00
2017-01-06T08:27:14.731Z,55.08
2017-01-06T08:28:12.576Z,54.87
2017-01-06T08:29:14.041Z,55.03
2017-01-06T08:30:12.285Z,55.62
2017-01-06T08:31:14.028Z,55.78
2017-01-06T08:32:12.706Z,55.85
2017-01-06T08:33:13.939Z,55.87
2017-01-06T08:34:13.697Z,55.90
2017-01-06T08:35:13.354Z,56.10
2017-01-06T08:36:13.978Z,56.39
2017-01-06T08:37:12.560Z,56.52
2017-01-06T08:38:14.345Z,56.75
2017-01-06T08:39:11.366Z,56.69
2017-01-06T08:40:12.965Z,56.78
2017-01-06T08:41:11.893Z,57.10
2017-01-06T08:42:11.872Z,56.73
2017-01-06T08:43:12.521Z,57.54
2017-01-06T08:44:14.477Z,57.40
2017-01-06T08:45:13.437Z,57.37
2017-01-06T08:46:13.156Z,57.01
2017-01-06T08:47:12.162Z,57.00
2017-01-06T08:48:12.863Z,57.94
2017-01-06T08:49:12.818Z,57.44
2017-01-06T08:50:13.371Z,57.64
2017-01-06T08:51:12.530Z,57.84
2017-01-06T08:52:13.549Z,57.55
2017-01-06T08:53:14.537Z,57.43
2017-01-06T08:54:14.106Z,57.34
2017-01-06T08:55:12.921Z,57.22
2017-01-06T08:56:12.702Z,57.10
2017-01-06T08:57:13.328Z,57.05
2017-01-06T08:58:12.414Z,57.04
2017-01-06T08:59:12.936Z,57.02
2017-01-06T09:00:13.647Z,57.00
2017-01-06T09:01:12.696Z,56.94
2017-01-06T09:02:13.405Z,56.94
2017-01-06T09:03:14.152Z,56.91
2017-01-06T09:04:12.310Z,56.89
2017-01-06T09:05:12.842Z,56.90
2017-01-06T09:06:12.956Z,56.90
2017-01-06T09:07:12.238Z,56.91
2017-01-06T09:08:14.005Z,56.89
2017-01-06T09:09:12.638Z,56.91
2017-01-06T09:10:13.238Z,56.82
2017-01-06T09:11:14.936Z,56.41
2017-01-06T09:12:12.068Z,57.23
2017-01-06T09:13:14.255Z,56.98
2017-01-06T09:14:12.463Z,54.96
2017-01-06T09:15:12.270Z,53.90
2017-01-06T09:16:13.952Z,42.98
2017-01-06T09:17:12.162Z,33.26
2017-01-06T09:18:12.302Z,31.42
2017-01-06T09:19:10.908Z,31.34
2017-01-06T09:20:12.658Z,31.31
2017-01-06T09:21:14.116Z,34.61
2017-01-06T09:22:12.729Z,37.41
2017-01-06T09:23:13.537Z,37.56
2017-01-06T09:24:12.838Z,38.22
2017-01-06T09:25:12.928Z,38.27
2017-01-06T09:26:12.007Z,38.74
2017-01-06T09:27:13.023Z,39.20
2017-01-06T09:28:12.165Z,39.57
2017-01-06T09:29:13.047Z,39.72
2017-01-06T09:30:12.045Z,40.12
2017-01-06T09:31:11.924Z,40.51
2017-01-06T09:32:12.817Z,40.73
2017-01-06T09:33:13.529Z,41.73
2017-01-06T09:34:10.903Z,42.48
2017-01-06T09:35:13.315Z,43.02
2017-01-06T09:36:12.373Z,43.24
2017-01-06T09:37:13.025Z,43.44
2017-01-06T09:38:13.666Z,43.25
2017-01-06T09:39:12.620Z,43.43
2017-01-06T09:40:13.865Z,43.92
2017-01-06T09:41:13.392Z,43.80
2017-01-06T09:42:13.096Z,43.71
2017-01-06T09:43:12.573Z,44.09
2017-01-06T09:44:13.105Z,44.07
2017-01-06T09:45:12.819Z,43.61
2017-01-06T09:46:12.917Z,44.21
2017-01-06T09:47:12.868Z,44.38
2017-01-06T09:48:15.254Z,44.59
2017-01-06T09:49:13.181Z,44.71
2017-01-06T09:50:12.257Z,44.80
2017-01-06T09:51:13.570Z,44.96
2017-01-06T09:52:12.570Z,45.18
2017-01-06T09:53:13.655Z,45.29
2017-01-06T09:54:13.158Z,45.28
2017-01-06T09:55:13.985Z,45.51
2017-01-06T09:56:12.122Z,45.68
2017-01-06T09:57:14.402Z,45.95
2017-01-06T09:58:13.043Z,46.10
2017-01-06T09:59:13.885Z,46.14
2017-01-06T10:00:12.992Z,46.36
2017-01-06T10:01:12.031Z,46.48
2017-01-06T10:02:14.028Z,46.57
2017-01-06T10:03:12.004Z,46.75
2017-01-06T10:04:13.646Z,46.91
2017-01-06T10:05:13.270Z,46.99
2017-01-06T10:06:12.928Z,47.10
2017-01-06T10:07:12.688Z,47.26
2017-01-06T10:08:11.973Z,47.36
2017-01-06T10:09:14.544Z,47.54
2017-01-06T10:10:13.082Z,47.53
2017-01-06T10:11:12.178Z,46.97
2017-01-06T10:12:13.803Z,46.98
2017-01-06T10:13:14.277Z,46.98
2017-01-06T10:14:12.273Z,46.97
2017-01-06T10:15:14.375Z,47.12
2017-01-06T10:16:12.438Z,47.24
2017-01-06T10:17:11.593Z,47.41
2017-01-06T10:18:10.930Z,48.14
2017-01-06T10:19:13.268Z,48.43
2017-01-06T10:20:14.960Z,48.66
2017-01-06T10:21:12.579Z,48.73
2017-01-06T10:22:12.550Z,48.88
2017-01-06T10:23:12.635Z,49.00
2017-01-06T10:24:10.782Z,49.17
2017-01-06T10:25:14.044Z,49.23
2017-01-06T10:26:13.767Z,49.29
2017-01-06T10:27:14.415Z,49.44
2017-01-06T10:28:12.789Z,49.57
2017-01-06T10:29:13.682Z,49.62
2017-01-06T10:30:12.736Z,49.72
2017-01-06T10:31:13.960Z,49.81
2017-01-06T10:32:12.017Z,49.87
2017-01-06T10:33:12.171Z,50.00
2017-01-06T10:34:12.256Z,49.96
2017-01-06T10:35:12.825Z,50.05
2017-01-06T10:36:14.202Z,50.22
2017-01-06T10:37:12.255Z,50.29
2017-01-06T10:38:10.983Z,50.51
2017-01-06T10:39:14.802Z,49.73
2017-01-06T10:40:12.870Z,50.15
2017-01-06T10:41:13.831Z,50.25
2017-01-06T10:42:13.289Z,50.38
2017-01-06T10:43:12.387Z,50.48
2017-01-06T10:44:12.421Z,50.56
2017-01-06T10:45:12.108Z,50.63
2017-01-06T10:46:14.009Z,50.70
2017-01-06T10:47:13.587Z,50.80
2017-01-06T10:48:14.246Z,50.73
2017-01-06T10:49:12.930Z,50.15
2017-01-06T10:50:10.417Z,49.99
2017-01-06T10:51:10.765Z,49.98
2017-01-06T10:52:13.548Z,49.95
2017-01-06T10:53:14.252Z,50.00
2017-01-06T10:54:12.791Z,50.03
2017-01-06T10:55:12.789Z,50.11
2017-01-06T10:56:15.829Z,50.14
2017-01-06T10:57:11.003Z,50.18
2017-01-06T10:58:13.797Z,50.19
2017-01-06T10:59:16.648Z,50.30
2017-01-06T11:00:12.886Z,50.32
2017-01-06T11:01:12.989Z,50.39
2017-01-06T11:02:12.422Z,50.66
2017-01-06T11:03:12.768Z,51.33
2017-01-06T11:04:16.921Z,51.62
2017-01-06T11:05:11.199Z,51.65
2017-01-06T11:06:12.319Z,51.01
2017-01-06T11:07:13.071Z,50.88
2017-01-06T11:08:12.112Z,50.80
2017-01-06T11:09:12.641Z,50.81
2017-01-06T11:10:13.110Z,50.82
2017-01-06T11:11:12.836Z,50.84
2017-01-06T11:12:13.696Z,50.87
2017-01-06T11:13:13.466Z,50.92
2017-01-06T11:14:12.579Z,51.08
2017-01-06T11:15:13.187Z,51.79
2017-01-06T11:16:12.843Z,51.99
2017-01-06T11:17:13.652Z,52.16
2017-01-06T11:18:11.593Z,52.19
2017-01-06T11:19:12.751Z,52.27
2017-01-06T11:20:13.392Z,52.33
2017-01-06T11:21:09.818Z,52.40
2017-01-06T11:22:13.819Z,52.43
2017-01-06T11:23:11.116Z,52.45
2017-01-06T11:24:12.020Z,52.48
2017-01-06T11:25:12.981Z,52.52
2017-01-06T11:26:12.611Z,52.56
2017-01-06T11:27:13.338Z,52.59
2017-01-06T11:28:09.780Z,52.58
2017-01-06T11:29:14.666Z,52.63
2017-01-06T11:30:13.535Z,52.62
2017-01-06T11:31:13.063Z,52.68
2017-01-06T11:32:14.021Z,52.67
2017-01-06T11:33:15.731Z,52.72
2017-01-06T11:34:14.174Z,52.74
2017-01-06T11:35:12.804Z,52.74
2017-01-06T11:36:12.821Z,52.75
2017-01-06T11:37:13.477Z,52.77
2017-01-06T11:38:13.571Z,52.79
2017-01-06T11:39:15.228Z,52.81
2017-01-06T11:40:10.345Z,52.82
2017-01-06T11:41:16.299Z,52.84
2017-01-06T11:42:12.326Z,52.87
2017-01-06T11:43:12.421Z,52.87
2017-01-06T11:44:15.190Z,52.91
2017-01-06T11:45:12.733Z,52.90
2017-01-06T11:46:13.514Z,52.93
2017-01-06T11:47:13.395Z,52.89
2017-01-06T11:48:13.051Z,52.91
2017-01-06T11:49:13.810Z,52.95
2017-01-06T11:50:13.591Z,52.98
2017-01-06T11:51:15.439Z,52.98
2017-01-06T11:52:10.145Z,53.00
2017-01-06T11:53:15.338Z,52.99
2017-01-06T11:54:14.152Z,52.98
2017-01-06T11:55:13.071Z,53.01
2017-01-06T11:56:12.072Z,53.02
2017-01-06T11:57:12.655Z,53.02
2017-01-06T11:58:12.732Z,53.01
2017-01-06T11:59:12.987Z,53.02
2017-01-06T12:00:13.488Z,53.06
2017-01-06T12:01:12.453Z,53.05
2017-01-06T12:02:13.083Z,53.08
2017-01-06T12:03:12.043Z,53.10
2017-01-06T12:04:12.842Z,53.13
2017-01-06T12:05:13.610Z,53.12
2017-01-06T12:06:13.611Z,53.13
2017-01-06T12:07:13.081Z,53.15
2017-01-06T12:08:13.029Z,53.17
2017-01-06T12:09:12.037Z,53.15
2017-01-06T12:10:14.703Z,53.18
2017-01-06T12:11:12.072Z,53.23
2017-01-06T12:12:10.309Z,52.38
2017-01-06T12:13:12.861Z,52.20
2017-01-06T12:14:13.489Z,52.12
2017-01-06T12:15:10.121Z,51.74
2017-01-06T12:16:12.715Z,49.71
2017-01-06T12:17:13.525Z,50.62
2017-01-06T12:18:11.843Z,50.35
2017-01-06T12:19:12.667Z,51.56
2017-01-06T12:20:12.620Z,51.96
2017-01-06T12:21:12.763Z,52.22
2017-01-06T12:22:15.843Z,52.08
2017-01-06T12:23:13.491Z,52.20
2017-01-06T12:24:12.495Z,52.27
2017-01-06T12:25:14.036Z,52.35
2017-01-06T12:26:14.035Z,52.37
2017-01-06T12:27:12.074Z,52.39
2017-01-06T12:28:12.693Z,52.35
2017-01-06T12:29:13.691Z,51.78
2017-01-06T12:30:12.807Z,52.25
2017-01-06T12:31:13.398Z,52.34
2017-01-06T12:32:14.386Z,52.42
2017-01-06T12:33:11.222Z,52.46
2017-01-06T12:34:12.321Z,52.50
2017-01-06T12:35:13.915Z,52.49
2017-01-06T12:36:12.861Z,52.53
2017-01-06T12:37:14.526Z,52.53
2017-01-06T12:38:14.294Z,52.53
2017-01-06T12:39:13.974Z,52.53
2017-01-06T12:40:10.416Z,52.57
2017-01-06T12:41:12.643Z,52.56
2017-01-06T12:42:12.714Z,52.57
2017-01-06T12:43:13.352Z,52.57
2017-01-06T12:44:13.118Z,52.59
2017-01-06T12:45:13.827Z,52.61
2017-01-06T12:46:12.721Z,52.58
2017-01-06T12:47:14.310Z,52.61
2017-01-06T12:48:15.130Z,52.63
2017-01-06T12:49:14.216Z,52.61
2017-01-06T12:50:11.863Z,52.64
2017-01-06T12:51:12.164Z,52.64
2017-01-06T12:52:13.775Z,52.65
2017-01-06T12:53:12.817Z,52.68
2017-01-06T12:54:12.886Z,52.69